AAL1325 KIAD-KGPT
Flight info
| Callsign | AAL1325 |
|---|---|
| Flight time | 2h 5m |
| Altitude | 32000 |
| Route | JDUBB4 RRSIN GSO AHN MGM MVC SJI GPT |
| Aircraft | MD83/M-SDFGIRWY/C |
Departure
| Time | 2026-04-21 01:57 |
|---|---|
| Airport | Washington Dulles International Airport (KIAD) |
Arrival
| Time | 2026-04-21 04:02 |
|---|---|
| Airport | Gulfport Biloxi International Airport (KGPT) |
| Time | Latitude | Longitude | Altitude | Speed | Heading |
|---|---|---|---|---|---|
| 2026-04-21 01:21 | 38.94587 | -77.44951 | 301 ft | 0 kts | 188° |
| 2026-04-21 01:47 | 38.94600 | -77.44948 | 303 ft | 4 kts | 187° |
| 2026-04-21 01:47 | 38.94626 | -77.44946 | 303 ft | 4 kts | 178° |
| 2026-04-21 01:47 | 38.94643 | -77.44942 | 301 ft | 3 kts | 217° |
| 2026-04-21 01:48 | 38.94657 | -77.44920 | 301 ft | 4 kts | 257° |
| 2026-04-21 01:48 | 38.94659 | -77.44888 | 301 ft | 2 kts | 271° |
| 2026-04-21 01:48 | 38.94659 | -77.44880 | 301 ft | 0 kts | 271° |
| 2026-04-21 01:50 | 38.94659 | -77.44881 | 301 ft | 0 kts | 271° |
| 2026-04-21 01:51 | 38.94659 | -77.44918 | 301 ft | 7 kts | 271° |
| 2026-04-21 01:51 | 38.94660 | -77.44977 | 303 ft | 7 kts | 271° |
| 2026-04-21 01:51 | 38.94660 | -77.45036 | 301 ft | 7 kts | 271° |
| 2026-04-21 01:51 | 38.94661 | -77.45097 | 301 ft | 7 kts | 271° |
| 2026-04-21 01:52 | 38.94662 | -77.45158 | 301 ft | 7 kts | 271° |
| 2026-04-21 01:52 | 38.94665 | -77.45418 | 301 ft | 6 kts | 269° |
| 2026-04-21 01:52 | 38.94665 | -77.45460 | 301 ft | 1 kts | 269° |
| 2026-04-21 01:53 | 38.94665 | -77.45468 | 301 ft | 1 kts | 269° |
| 2026-04-21 01:53 | 38.94664 | -77.45478 | 301 ft | 1 kts | 269° |
| 2026-04-21 01:53 | 38.94661 | -77.45567 | 301 ft | 16 kts | 257° |
| 2026-04-21 01:53 | 38.94578 | -77.45609 | 303 ft | 14 kts | 183° |
| 2026-04-21 01:54 | 38.94471 | -77.45613 | 303 ft | 19 kts | 181° |
| 2026-04-21 01:54 | 38.94313 | -77.45614 | 302 ft | 25 kts | 180° |
| 2026-04-21 01:54 | 38.94144 | -77.45615 | 302 ft | 24 kts | 180° |
| 2026-04-21 01:54 | 38.93979 | -77.45616 | 303 ft | 23 kts | 181° |
| 2026-04-21 01:55 | 38.93817 | -77.45620 | 302 ft | 23 kts | 180° |
| 2026-04-21 01:55 | 38.93673 | -77.45565 | 301 ft | 22 kts | 131° |
| 2026-04-21 01:55 | 38.93547 | -77.45518 | 302 ft | 20 kts | 198° |
| 2026-04-21 01:55 | 38.93414 | -77.45583 | 299 ft | 21 kts | 207° |
| 2026-04-21 01:56 | 38.93401 | -77.45737 | 302 ft | 25 kts | 291° |
| 2026-04-21 01:56 | 38.93497 | -77.46056 | 301 ft | 60 kts | 291° |
| 2026-04-21 01:56 | 38.93716 | -77.46800 | 305 ft | 116 kts | 293° |
| 2026-04-21 01:56 | 38.93930 | -77.47531 | 305 ft | 146 kts | 290° |
| 2026-04-21 01:57 | 38.94439 | -77.49356 | 687 ft | 163 kts | 293° |
| 2026-04-21 01:57 | 38.94785 | -77.50682 | 1512 ft | 158 kts | 287° |
| 2026-04-21 01:57 | 38.94717 | -77.52230 | 1678 ft | 195 kts | 255° |
| 2026-04-21 01:57 | 38.93930 | -77.53695 | 2284 ft | 204 kts | 220° |
| 2026-04-21 01:58 | 38.92747 | -77.54701 | 2877 ft | 209 kts | 229° |
| 2026-04-21 01:58 | 38.91851 | -77.56268 | 3145 ft | 224 kts | 242° |
| 2026-04-21 01:58 | 38.91275 | -77.57443 | 3269 ft | 241 kts | 242° |
| 2026-04-21 01:58 | 38.89912 | -77.60132 | 3244 ft | 293 kts | 241° |
| 2026-04-21 01:59 | 38.89217 | -77.61635 | 3765 ft | 275 kts | 243° |
| 2026-04-21 01:59 | 38.88291 | -77.63544 | 4318 ft | 239 kts | 240° |
| 2026-04-21 01:59 | 38.87442 | -77.65316 | 4346 ft | 225 kts | 244° |
| 2026-04-21 01:59 | 38.86643 | -77.67101 | 4621 ft | 246 kts | 244° |
| 2026-04-21 02:00 | 38.85829 | -77.69036 | 5445 ft | 243 kts | 246° |
| 2026-04-21 02:00 | 38.84948 | -77.70868 | 6263 ft | 246 kts | 233° |
| 2026-04-21 02:00 | 38.83596 | -77.72343 | 6632 ft | 269 kts | 214° |
| 2026-04-21 02:00 | 38.81754 | -77.73128 | 7227 ft | 286 kts | 187° |
| 2026-04-21 02:01 | 38.79846 | -77.72825 | 8528 ft | 272 kts | 164° |
| 2026-04-21 02:01 | 38.78079 | -77.71962 | 9312 ft | 276 kts | 161° |
| 2026-04-21 02:01 | 38.76201 | -77.71065 | 9485 ft | 302 kts | 162° |
| 2026-04-21 02:01 | 38.74169 | -77.70170 | 9869 ft | 309 kts | 163° |
| 2026-04-21 02:02 | 38.72145 | -77.69293 | 10597 ft | 306 kts | 163° |
| 2026-04-21 02:02 | 38.70101 | -77.68396 | 11050 ft | 318 kts | 163° |
| 2026-04-21 02:02 | 38.67952 | -77.67436 | 11320 ft | 336 kts | 162° |
| 2026-04-21 02:02 | 38.67207 | -77.67092 | 11446 ft | 340 kts | 161° |
| 2026-04-21 02:03 | 38.66865 | -77.66931 | 11528 ft | 341 kts | 161° |
| 2026-04-21 02:03 | 38.64746 | -77.65892 | 12279 ft | 337 kts | 160° |
| 2026-04-21 02:03 | 38.62623 | -77.64801 | 13428 ft | 322 kts | 159° |
| 2026-04-21 02:03 | 38.60534 | -77.63675 | 13781 ft | 338 kts | 158° |
| 2026-04-21 02:04 | 38.58208 | -77.62451 | 13070 ft | 386 kts | 164° |
| 2026-04-21 02:04 | 38.55559 | -77.61683 | 13703 ft | 380 kts | 173° |
| 2026-04-21 02:04 | 38.52963 | -77.61099 | 14427 ft | 386 kts | 173° |
| 2026-04-21 02:04 | 38.50270 | -77.60386 | 14588 ft | 403 kts | 170° |
| 2026-04-21 02:05 | 38.47543 | -77.59537 | 15198 ft | 405 kts | 168° |
| 2026-04-21 02:05 | 38.44808 | -77.58601 | 15738 ft | 409 kts | 167° |
| 2026-04-21 02:05 | 38.42039 | -77.57736 | 16317 ft | 409 kts | 178° |
| 2026-04-21 02:05 | 38.39236 | -77.57845 | 16873 ft | 399 kts | 200° |
| 2026-04-21 02:06 | 38.36698 | -77.59081 | 17443 ft | 386 kts | 218° |
| 2026-04-21 02:06 | 38.34430 | -77.60884 | 18036 ft | 384 kts | 222° |
| 2026-04-21 02:06 | 38.32219 | -77.62804 | 18623 ft | 385 kts | 223° |
| 2026-04-21 02:06 | 38.30019 | -77.64777 | 19118 ft | 388 kts | 225° |
| 2026-04-21 02:07 | 38.27913 | -77.66911 | 19595 ft | 387 kts | 229° |
| 2026-04-21 02:07 | 38.25891 | -77.69176 | 20070 ft | 389 kts | 231° |
| 2026-04-21 02:07 | 38.23871 | -77.71480 | 20544 ft | 392 kts | 231° |
| 2026-04-21 02:07 | 38.21817 | -77.73792 | 20971 ft | 397 kts | 230° |
| 2026-04-21 02:08 | 38.19711 | -77.76126 | 21188 ft | 406 kts | 229° |
| 2026-04-21 02:08 | 38.17561 | -77.78463 | 21276 ft | 407 kts | 229° |
| 2026-04-21 02:08 | 38.15406 | -77.80761 | 21393 ft | 400 kts | 229° |
| 2026-04-21 02:08 | 38.13253 | -77.83033 | 21586 ft | 407 kts | 228° |
| 2026-04-21 02:09 | 38.11099 | -77.85313 | 22336 ft | 401 kts | 229° |
| 2026-04-21 02:09 | 38.08952 | -77.87625 | 22585 ft | 410 kts | 230° |
| 2026-04-21 02:09 | 38.06780 | -77.89981 | 23164 ft | 409 kts | 229° |
| 2026-04-21 02:09 | 38.04605 | -77.92302 | 23737 ft | 410 kts | 230° |
| 2026-04-21 02:10 | 38.02420 | -77.94701 | 23811 ft | 419 kts | 230° |
| 2026-04-21 02:10 | 38.00193 | -77.97094 | 24145 ft | 418 kts | 229° |
| 2026-04-21 02:10 | 37.97940 | -77.99454 | 24263 ft | 425 kts | 228° |
| 2026-04-21 02:10 | 37.95647 | -78.01824 | 24372 ft | 425 kts | 228° |
| 2026-04-21 02:11 | 37.93349 | -78.04185 | 24361 ft | 425 kts | 228° |
| 2026-04-21 02:11 | 37.91062 | -78.06532 | 24346 ft | 423 kts | 228° |
| 2026-04-21 02:11 | 37.88780 | -78.08867 | 24318 ft | 420 kts | 227° |
| 2026-04-21 02:11 | 37.86512 | -78.11194 | 24327 ft | 421 kts | 229° |
| 2026-04-21 02:12 | 37.84264 | -78.13573 | 24717 ft | 421 kts | 229° |
| 2026-04-21 02:12 | 37.82023 | -78.15971 | 25064 ft | 423 kts | 229° |
| 2026-04-21 02:12 | 37.79772 | -78.18384 | 25444 ft | 425 kts | 229° |
| 2026-04-21 02:12 | 37.77509 | -78.20803 | 25768 ft | 428 kts | 229° |
| 2026-04-21 02:13 | 37.75226 | -78.23231 | 26118 ft | 430 kts | 229° |
| 2026-04-21 02:13 | 37.72935 | -78.25655 | 26416 ft | 432 kts | 229° |
| 2026-04-21 02:13 | 37.70610 | -78.28105 | 26730 ft | 435 kts | 229° |
| 2026-04-21 02:13 | 37.68275 | -78.30548 | 27046 ft | 437 kts | 229° |
| 2026-04-21 02:14 | 37.65930 | -78.32997 | 27352 ft | 439 kts | 229° |
| 2026-04-21 02:14 | 37.63571 | -78.35462 | 27630 ft | 441 kts | 229° |
| 2026-04-21 02:14 | 37.61204 | -78.37941 | 27918 ft | 443 kts | 229° |
| 2026-04-21 02:14 | 37.58828 | -78.40432 | 28193 ft | 445 kts | 229° |
| 2026-04-21 02:15 | 37.56444 | -78.42931 | 28486 ft | 446 kts | 229° |
| 2026-04-21 02:15 | 37.54058 | -78.45435 | 28759 ft | 448 kts | 229° |
| 2026-04-21 02:15 | 37.51653 | -78.47959 | 29028 ft | 450 kts | 229° |
| 2026-04-21 02:15 | 37.49238 | -78.50491 | 29283 ft | 452 kts | 229° |
| 2026-04-21 02:16 | 37.46819 | -78.53023 | 29529 ft | 454 kts | 229° |
| 2026-04-21 02:16 | 37.44378 | -78.55557 | 29790 ft | 456 kts | 229° |
| 2026-04-21 02:16 | 37.41917 | -78.58084 | 30014 ft | 458 kts | 228° |
| 2026-04-21 02:16 | 37.39442 | -78.60617 | 30258 ft | 459 kts | 228° |
| 2026-04-21 02:17 | 37.36958 | -78.63161 | 30479 ft | 461 kts | 228° |
| 2026-04-21 02:17 | 37.34471 | -78.65714 | 30699 ft | 462 kts | 228° |
| 2026-04-21 02:17 | 37.31980 | -78.68277 | 30875 ft | 463 kts | 228° |
| 2026-04-21 02:17 | 37.29487 | -78.70845 | 31072 ft | 465 kts | 228° |
| 2026-04-21 02:18 | 37.26982 | -78.73427 | 31240 ft | 466 kts | 228° |
| 2026-04-21 02:18 | 37.24475 | -78.76009 | 31432 ft | 467 kts | 228° |
| 2026-04-21 02:18 | 37.21959 | -78.78596 | 31606 ft | 468 kts | 228° |
| 2026-04-21 02:18 | 37.19433 | -78.81189 | 31753 ft | 470 kts | 228° |
| 2026-04-21 02:19 | 37.16900 | -78.83786 | 31942 ft | 471 kts | 228° |
| 2026-04-21 02:19 | 37.14362 | -78.86387 | 32097 ft | 472 kts | 228° |
| 2026-04-21 02:19 | 37.11808 | -78.88999 | 32218 ft | 475 kts | 228° |
| 2026-04-21 02:20 | 37.06667 | -78.94233 | 32289 ft | 477 kts | 228° |
| 2026-04-21 02:20 | 37.01534 | -78.99452 | 32292 ft | 474 kts | 228° |
| 2026-04-21 02:21 | 36.96432 | -79.04653 | 32294 ft | 473 kts | 228° |
| 2026-04-21 02:21 | 36.91337 | -79.09850 | 32294 ft | 473 kts | 228° |
| 2026-04-21 02:22 | 36.86255 | -79.15056 | 32292 ft | 473 kts | 228° |
| 2026-04-21 02:22 | 36.81175 | -79.20270 | 32302 ft | 473 kts | 228° |
| 2026-04-21 02:23 | 36.76094 | -79.25475 | 32306 ft | 472 kts | 228° |
| 2026-04-21 02:23 | 36.71010 | -79.30670 | 32314 ft | 472 kts | 228° |
| 2026-04-21 02:24 | 36.65929 | -79.35854 | 32318 ft | 472 kts | 228° |
| 2026-04-21 02:24 | 36.60843 | -79.41033 | 32316 ft | 472 kts | 228° |
| 2026-04-21 02:25 | 36.55743 | -79.46193 | 32316 ft | 472 kts | 228° |
| 2026-04-21 02:25 | 36.50649 | -79.51344 | 32310 ft | 472 kts | 228° |
| 2026-04-21 02:26 | 36.45560 | -79.56494 | 32304 ft | 472 kts | 228° |
| 2026-04-21 02:26 | 36.40468 | -79.61643 | 32302 ft | 472 kts | 228° |
| 2026-04-21 02:27 | 36.35376 | -79.66783 | 32297 ft | 472 kts | 228° |
| 2026-04-21 02:27 | 36.30282 | -79.71917 | 32299 ft | 472 kts | 228° |
| 2026-04-21 02:28 | 36.25232 | -79.76964 | 32292 ft | 465 kts | 227° |
| 2026-04-21 02:28 | 36.20249 | -79.81928 | 32285 ft | 454 kts | 228° |
| 2026-04-21 02:29 | 36.15389 | -79.86799 | 32287 ft | 446 kts | 228° |
| 2026-04-21 02:29 | 36.10585 | -79.91636 | 32295 ft | 445 kts | 228° |
| 2026-04-21 02:30 | 36.05760 | -79.96484 | 32300 ft | 448 kts | 229° |
| 2026-04-21 02:30 | 36.03571 | -79.99131 | 32310 ft | 435 kts | 240° |
| 2026-04-21 02:30 | 36.01732 | -80.02068 | 32310 ft | 431 kts | 243° |
| 2026-04-21 02:31 | 35.98246 | -80.08078 | 32293 ft | 430 kts | 243° |
| 2026-04-21 02:31 | 35.94760 | -80.14076 | 32285 ft | 430 kts | 243° |
| 2026-04-21 02:32 | 35.91221 | -80.20035 | 32291 ft | 430 kts | 243° |
| 2026-04-21 02:32 | 35.87651 | -80.25964 | 32301 ft | 430 kts | 242° |
| 2026-04-21 02:33 | 35.84082 | -80.31885 | 32302 ft | 430 kts | 242° |
| 2026-04-21 02:33 | 35.80519 | -80.37808 | 32297 ft | 430 kts | 242° |
| 2026-04-21 02:34 | 35.76950 | -80.43722 | 32295 ft | 431 kts | 242° |
| 2026-04-21 02:34 | 35.73361 | -80.49627 | 32301 ft | 430 kts | 242° |
| 2026-04-21 02:35 | 35.69776 | -80.55526 | 32299 ft | 430 kts | 242° |
| 2026-04-21 02:35 | 35.66195 | -80.61424 | 32300 ft | 430 kts | 242° |
| 2026-04-21 02:36 | 35.62617 | -80.67319 | 32293 ft | 430 kts | 242° |
| 2026-04-21 02:36 | 35.59039 | -80.73208 | 32290 ft | 430 kts | 242° |
| 2026-04-21 02:37 | 35.55460 | -80.79089 | 32282 ft | 430 kts | 242° |
| 2026-04-21 02:37 | 35.51871 | -80.84962 | 32279 ft | 430 kts | 242° |
| 2026-04-21 02:38 | 35.48269 | -80.90817 | 32284 ft | 430 kts | 242° |
| 2026-04-21 02:38 | 35.44669 | -80.96668 | 32281 ft | 429 kts | 242° |
| 2026-04-21 02:39 | 35.41075 | -81.02518 | 32287 ft | 429 kts | 242° |
| 2026-04-21 02:39 | 35.37485 | -81.08360 | 32288 ft | 429 kts | 242° |
| 2026-04-21 02:40 | 35.33893 | -81.14201 | 32268 ft | 429 kts | 241° |
| 2026-04-21 02:40 | 35.30304 | -81.20031 | 32263 ft | 429 kts | 241° |
| 2026-04-21 02:41 | 35.27311 | -81.24870 | 32261 ft | 429 kts | 241° |
| 2026-04-21 02:41 | 35.23694 | -81.30678 | 32260 ft | 429 kts | 241° |
| 2026-04-21 02:42 | 35.20080 | -81.36478 | 32259 ft | 429 kts | 241° |
| 2026-04-21 02:42 | 35.16472 | -81.42285 | 32272 ft | 429 kts | 241° |
| 2026-04-21 02:43 | 35.12866 | -81.48087 | 32287 ft | 429 kts | 241° |
| 2026-04-21 02:43 | 35.09259 | -81.53880 | 32273 ft | 428 kts | 241° |
| 2026-04-21 02:44 | 35.05649 | -81.59667 | 32272 ft | 428 kts | 241° |
| 2026-04-21 02:44 | 35.02034 | -81.65447 | 32275 ft | 428 kts | 240° |
| 2026-04-21 02:45 | 34.98402 | -81.71207 | 32263 ft | 428 kts | 241° |
| 2026-04-21 02:45 | 34.94775 | -81.76966 | 32272 ft | 428 kts | 241° |
| 2026-04-21 02:46 | 34.91155 | -81.82718 | 32277 ft | 428 kts | 241° |
| 2026-04-21 02:46 | 34.87534 | -81.88472 | 32277 ft | 428 kts | 241° |
| 2026-04-21 02:47 | 34.83914 | -81.94221 | 32281 ft | 428 kts | 240° |
| 2026-04-21 02:47 | 34.80313 | -81.99927 | 32277 ft | 428 kts | 241° |
| 2026-04-21 02:48 | 34.76684 | -82.05655 | 32271 ft | 427 kts | 240° |
| 2026-04-21 02:48 | 34.73015 | -82.11410 | 32260 ft | 428 kts | 240° |
| 2026-04-21 02:49 | 34.69398 | -82.17087 | 32278 ft | 428 kts | 240° |
| 2026-04-21 02:49 | 34.65757 | -82.22805 | 32275 ft | 428 kts | 240° |
| 2026-04-21 02:50 | 34.62116 | -82.28519 | 32275 ft | 428 kts | 240° |
| 2026-04-21 02:50 | 34.58476 | -82.34230 | 32271 ft | 428 kts | 240° |
| 2026-04-21 02:51 | 34.54830 | -82.39938 | 32269 ft | 428 kts | 240° |
| 2026-04-21 02:51 | 34.51179 | -82.45638 | 32258 ft | 428 kts | 240° |
| 2026-04-21 02:52 | 34.47516 | -82.51317 | 32262 ft | 428 kts | 240° |
| 2026-04-21 02:52 | 34.43855 | -82.56996 | 32263 ft | 427 kts | 240° |
| 2026-04-21 02:53 | 34.40203 | -82.62664 | 32262 ft | 427 kts | 240° |
| 2026-04-21 02:53 | 34.36543 | -82.68348 | 32469 ft | 427 kts | 240° |
| 2026-04-21 02:53 | 34.34728 | -82.71154 | 32891 ft | 422 kts | 240° |
| 2026-04-21 02:54 | 34.32926 | -82.73939 | 33206 ft | 419 kts | 240° |
| 2026-04-21 02:54 | 34.31133 | -82.76711 | 33491 ft | 417 kts | 240° |
| 2026-04-21 02:54 | 34.29352 | -82.79467 | 33804 ft | 415 kts | 240° |
| 2026-04-21 02:54 | 34.27582 | -82.82206 | 34087 ft | 412 kts | 241° |
| 2026-04-21 02:55 | 34.25817 | -82.84926 | 34346 ft | 410 kts | 240° |
| 2026-04-21 02:55 | 34.24053 | -82.87634 | 34538 ft | 410 kts | 241° |
| 2026-04-21 02:55 | 34.22292 | -82.90337 | 34678 ft | 409 kts | 241° |
| 2026-04-21 02:55 | 34.20532 | -82.93039 | 34840 ft | 409 kts | 241° |
| 2026-04-21 02:56 | 34.18775 | -82.95736 | 35015 ft | 408 kts | 241° |
| 2026-04-21 02:56 | 34.15272 | -83.01114 | 35316 ft | 407 kts | 242° |
| 2026-04-21 02:56 | 34.13528 | -83.03791 | 35485 ft | 405 kts | 242° |
| 2026-04-21 02:57 | 34.11783 | -83.06467 | 35624 ft | 405 kts | 242° |
| 2026-04-21 02:57 | 34.10045 | -83.09134 | 35751 ft | 404 kts | 242° |
| 2026-04-21 02:57 | 34.08307 | -83.11800 | 35889 ft | 404 kts | 242° |
| 2026-04-21 02:57 | 34.06572 | -83.14458 | 36028 ft | 403 kts | 242° |
| 2026-04-21 02:58 | 34.04840 | -83.17107 | 36174 ft | 402 kts | 242° |
| 2026-04-21 02:58 | 34.03110 | -83.19758 | 36231 ft | 403 kts | 242° |
| 2026-04-21 02:58 | 33.99647 | -83.25081 | 36275 ft | 403 kts | 242° |
| 2026-04-21 02:59 | 33.96217 | -83.30396 | 36286 ft | 401 kts | 242° |
| 2026-04-21 02:59 | 33.92889 | -83.35747 | 36291 ft | 397 kts | 245° |
| 2026-04-21 03:00 | 33.89816 | -83.41226 | 36291 ft | 394 kts | 246° |
| 2026-04-21 03:00 | 33.86803 | -83.46745 | 36287 ft | 395 kts | 246° |
| 2026-04-21 03:01 | 33.83784 | -83.52248 | 36303 ft | 393 kts | 246° |
| 2026-04-21 03:01 | 33.80787 | -83.57665 | 36301 ft | 391 kts | 246° |
| 2026-04-21 03:02 | 33.77768 | -83.63102 | 36301 ft | 391 kts | 246° |
| 2026-04-21 03:02 | 33.74746 | -83.68539 | 36296 ft | 391 kts | 246° |
| 2026-04-21 03:03 | 33.71724 | -83.73974 | 36294 ft | 391 kts | 246° |
| 2026-04-21 03:03 | 33.68688 | -83.79402 | 36290 ft | 391 kts | 246° |
| 2026-04-21 03:04 | 33.65644 | -83.84809 | 36286 ft | 390 kts | 246° |
| 2026-04-21 03:04 | 33.62609 | -83.90207 | 36291 ft | 390 kts | 246° |
| 2026-04-21 03:05 | 33.59577 | -83.95615 | 36294 ft | 391 kts | 246° |
| 2026-04-21 03:05 | 33.56539 | -84.01026 | 36291 ft | 391 kts | 246° |
| 2026-04-21 03:06 | 33.53503 | -84.06424 | 36288 ft | 390 kts | 246° |
| 2026-04-21 03:06 | 33.50468 | -84.11819 | 36319 ft | 390 kts | 246° |
| 2026-04-21 03:07 | 33.47435 | -84.17204 | 36329 ft | 390 kts | 245° |
| 2026-04-21 03:07 | 33.44385 | -84.22571 | 36340 ft | 390 kts | 245° |
| 2026-04-21 03:08 | 33.41338 | -84.27925 | 36342 ft | 389 kts | 245° |
| 2026-04-21 03:08 | 33.38297 | -84.33272 | 36345 ft | 388 kts | 245° |
| 2026-04-21 03:09 | 33.35262 | -84.38616 | 36344 ft | 388 kts | 245° |
| 2026-04-21 03:09 | 33.32229 | -84.43949 | 36340 ft | 388 kts | 245° |
| 2026-04-21 03:10 | 33.29196 | -84.49278 | 36318 ft | 387 kts | 245° |
| 2026-04-21 03:10 | 33.26166 | -84.54598 | 36315 ft | 387 kts | 245° |
| 2026-04-21 03:11 | 33.23135 | -84.59910 | 36316 ft | 387 kts | 245° |
| 2026-04-21 03:11 | 33.20085 | -84.65210 | 36319 ft | 387 kts | 245° |
| 2026-04-21 03:12 | 33.17035 | -84.70507 | 36320 ft | 387 kts | 245° |
| 2026-04-21 03:12 | 33.13989 | -84.75803 | 36320 ft | 387 kts | 245° |
| 2026-04-21 03:13 | 33.10948 | -84.81091 | 36313 ft | 387 kts | 245° |
| 2026-04-21 03:13 | 33.07908 | -84.86375 | 36316 ft | 386 kts | 245° |
| 2026-04-21 03:14 | 33.04869 | -84.91652 | 36314 ft | 386 kts | 245° |
| 2026-04-21 03:14 | 33.01831 | -84.96924 | 36331 ft | 386 kts | 245° |
| 2026-04-21 03:15 | 32.98788 | -85.02181 | 36329 ft | 385 kts | 244° |
| 2026-04-21 03:15 | 32.95731 | -85.07428 | 36326 ft | 385 kts | 244° |
| 2026-04-21 03:16 | 32.92676 | -85.12676 | 36327 ft | 385 kts | 244° |
| 2026-04-21 03:16 | 32.89646 | -85.17884 | 36320 ft | 385 kts | 244° |
| 2026-04-21 03:17 | 32.86594 | -85.23131 | 36318 ft | 386 kts | 244° |
| 2026-04-21 03:17 | 32.83541 | -85.28377 | 36312 ft | 386 kts | 244° |
| 2026-04-21 03:18 | 32.80489 | -85.33615 | 36317 ft | 386 kts | 244° |
| 2026-04-21 03:18 | 32.77434 | -85.38854 | 36327 ft | 386 kts | 244° |
| 2026-04-21 03:19 | 32.74363 | -85.44090 | 36331 ft | 386 kts | 244° |
| 2026-04-21 03:19 | 32.71280 | -85.49320 | 36335 ft | 387 kts | 243° |
| 2026-04-21 03:20 | 32.68201 | -85.54553 | 36334 ft | 387 kts | 243° |
| 2026-04-21 03:20 | 32.65118 | -85.59795 | 36325 ft | 387 kts | 243° |
| 2026-04-21 03:21 | 32.62033 | -85.65038 | 36320 ft | 388 kts | 243° |
| 2026-04-21 03:21 | 32.58965 | -85.70251 | 36316 ft | 388 kts | 243° |
| 2026-04-21 03:22 | 32.55869 | -85.75503 | 36309 ft | 389 kts | 243° |
| 2026-04-21 03:22 | 32.52768 | -85.80755 | 36291 ft | 389 kts | 243° |
| 2026-04-21 03:23 | 32.49649 | -85.86002 | 36289 ft | 390 kts | 243° |
| 2026-04-21 03:23 | 32.46524 | -85.91248 | 36283 ft | 390 kts | 243° |
| 2026-04-21 03:24 | 32.43399 | -85.96501 | 36283 ft | 390 kts | 243° |
| 2026-04-21 03:24 | 32.40274 | -86.01756 | 36289 ft | 390 kts | 243° |
| 2026-04-21 03:25 | 32.37150 | -86.07004 | 36291 ft | 390 kts | 243° |
| 2026-04-21 03:25 | 32.34030 | -86.12244 | 36295 ft | 390 kts | 243° |
| 2026-04-21 03:26 | 32.30909 | -86.17480 | 36294 ft | 389 kts | 243° |
| 2026-04-21 03:26 | 32.27792 | -86.22709 | 36320 ft | 389 kts | 243° |
| 2026-04-21 03:27 | 32.24691 | -86.27938 | 36326 ft | 388 kts | 243° |
| 2026-04-21 03:27 | 32.21542 | -86.33124 | 36327 ft | 391 kts | 239° |
| 2026-04-21 03:28 | 32.18552 | -86.37169 | 36326 ft | 394 kts | 236° |
| 2026-04-21 03:28 | 32.14882 | -86.41975 | 36310 ft | 393 kts | 237° |
| 2026-04-21 03:29 | 32.11283 | -86.46814 | 36293 ft | 392 kts | 238° |
| 2026-04-21 03:29 | 32.07729 | -86.51686 | 36268 ft | 391 kts | 238° |
| 2026-04-21 03:30 | 32.04190 | -86.56556 | 36275 ft | 391 kts | 238° |
| 2026-04-21 03:30 | 32.00644 | -86.61421 | 36288 ft | 391 kts | 238° |
| 2026-04-21 03:31 | 31.97094 | -86.66274 | 36298 ft | 391 kts | 238° |
| 2026-04-21 03:31 | 31.93541 | -86.71119 | 36302 ft | 391 kts | 238° |
| 2026-04-21 03:32 | 31.89975 | -86.75951 | 36296 ft | 391 kts | 237° |
| 2026-04-21 03:32 | 31.86411 | -86.80774 | 36287 ft | 390 kts | 238° |
| 2026-04-21 03:33 | 31.82850 | -86.85595 | 36274 ft | 390 kts | 238° |
| 2026-04-21 03:33 | 31.79293 | -86.90413 | 36262 ft | 390 kts | 238° |
| 2026-04-21 03:34 | 31.75738 | -86.95226 | 36262 ft | 390 kts | 237° |
| 2026-04-21 03:34 | 31.72177 | -87.00038 | 36277 ft | 390 kts | 237° |
| 2026-04-21 03:35 | 31.68617 | -87.04844 | 36288 ft | 390 kts | 237° |
| 2026-04-21 03:35 | 31.65045 | -87.09638 | 36311 ft | 390 kts | 237° |
| 2026-04-21 03:36 | 31.61631 | -87.14178 | 36313 ft | 390 kts | 237° |
| 2026-04-21 03:36 | 31.58053 | -87.18967 | 36321 ft | 390 kts | 237° |
| 2026-04-21 03:37 | 31.54491 | -87.23758 | 36316 ft | 389 kts | 237° |
| 2026-04-21 03:37 | 31.50934 | -87.28547 | 36092 ft | 392 kts | 237° |
| 2026-04-21 03:38 | 31.49133 | -87.30980 | 35370 ft | 397 kts | 237° |
| 2026-04-21 03:38 | 31.47320 | -87.33424 | 34670 ft | 399 kts | 236° |
| 2026-04-21 03:38 | 31.45494 | -87.35881 | 33929 ft | 400 kts | 237° |
| 2026-04-21 03:38 | 31.43681 | -87.38352 | 33138 ft | 401 kts | 237° |
| 2026-04-21 03:39 | 31.41895 | -87.40810 | 32392 ft | 402 kts | 237° |
| 2026-04-21 03:39 | 31.40090 | -87.43313 | 31639 ft | 403 kts | 237° |
| 2026-04-21 03:39 | 31.38282 | -87.45830 | 30914 ft | 405 kts | 236° |
| 2026-04-21 03:39 | 31.36469 | -87.48356 | 30183 ft | 406 kts | 236° |
| 2026-04-21 03:40 | 31.34650 | -87.50889 | 29353 ft | 407 kts | 236° |
| 2026-04-21 03:40 | 31.32801 | -87.53461 | 28552 ft | 408 kts | 235° |
| 2026-04-21 03:40 | 31.30972 | -87.56000 | 27777 ft | 409 kts | 235° |
| 2026-04-21 03:40 | 31.29134 | -87.58548 | 27027 ft | 410 kts | 234° |
| 2026-04-21 03:41 | 31.27295 | -87.61092 | 26292 ft | 410 kts | 234° |
| 2026-04-21 03:41 | 31.25451 | -87.63643 | 25578 ft | 411 kts | 234° |
| 2026-04-21 03:41 | 31.23606 | -87.66197 | 24878 ft | 412 kts | 233° |
| 2026-04-21 03:41 | 31.21779 | -87.68718 | 24208 ft | 412 kts | 233° |
| 2026-04-21 03:42 | 31.19927 | -87.71273 | 23463 ft | 413 kts | 233° |
| 2026-04-21 03:42 | 31.18072 | -87.73833 | 22672 ft | 413 kts | 233° |
| 2026-04-21 03:42 | 31.16211 | -87.76390 | 21902 ft | 413 kts | 232° |
| 2026-04-21 03:42 | 31.14343 | -87.78943 | 21150 ft | 413 kts | 232° |
| 2026-04-21 03:43 | 31.12479 | -87.81494 | 20419 ft | 413 kts | 232° |
| 2026-04-21 03:43 | 31.10618 | -87.84050 | 19698 ft | 413 kts | 232° |
| 2026-04-21 03:43 | 31.08758 | -87.86605 | 18997 ft | 413 kts | 231° |
| 2026-04-21 03:43 | 31.06899 | -87.89157 | 18264 ft | 413 kts | 231° |
| 2026-04-21 03:44 | 31.05039 | -87.91703 | 17475 ft | 412 kts | 231° |
| 2026-04-21 03:44 | 31.03184 | -87.94239 | 16721 ft | 411 kts | 231° |
| 2026-04-21 03:44 | 31.01540 | -87.96488 | 16053 ft | 410 kts | 231° |
| 2026-04-21 03:44 | 30.99694 | -87.99013 | 15330 ft | 408 kts | 231° |
| 2026-04-21 03:45 | 30.97853 | -88.01527 | 14636 ft | 407 kts | 231° |
| 2026-04-21 03:45 | 30.96045 | -88.04003 | 14300 ft | 396 kts | 232° |
| 2026-04-21 03:45 | 30.94279 | -88.06420 | 13943 ft | 387 kts | 232° |
| 2026-04-21 03:45 | 30.92556 | -88.08775 | 13546 ft | 378 kts | 232° |
| 2026-04-21 03:46 | 30.90871 | -88.11085 | 13153 ft | 370 kts | 231° |
| 2026-04-21 03:46 | 30.89208 | -88.13339 | 12789 ft | 364 kts | 231° |
| 2026-04-21 03:46 | 30.87570 | -88.15551 | 12422 ft | 357 kts | 231° |
| 2026-04-21 03:46 | 30.85966 | -88.17727 | 12040 ft | 351 kts | 231° |
| 2026-04-21 03:47 | 30.84343 | -88.19815 | 11666 ft | 346 kts | 227° |
| 2026-04-21 03:47 | 30.82664 | -88.21792 | 11307 ft | 341 kts | 226° |
| 2026-04-21 03:47 | 30.80989 | -88.23721 | 10963 ft | 337 kts | 226° |
| 2026-04-21 03:47 | 30.79343 | -88.25631 | 10592 ft | 331 kts | 226° |
| 2026-04-21 03:48 | 30.77747 | -88.27525 | 10306 ft | 324 kts | 227° |
| 2026-04-21 03:48 | 30.76228 | -88.29352 | 10160 ft | 312 kts | 227° |
| 2026-04-21 03:48 | 30.74758 | -88.31133 | 10080 ft | 299 kts | 227° |
| 2026-04-21 03:48 | 30.73348 | -88.32839 | 9988 ft | 288 kts | 227° |
| 2026-04-21 03:49 | 30.71958 | -88.34530 | 9573 ft | 289 kts | 227° |
| 2026-04-21 03:49 | 30.70576 | -88.36209 | 9243 ft | 286 kts | 226° |
| 2026-04-21 03:49 | 30.69183 | -88.37894 | 8914 ft | 284 kts | 226° |
| 2026-04-21 03:49 | 30.67834 | -88.39525 | 8624 ft | 283 kts | 226° |
| 2026-04-21 03:50 | 30.66454 | -88.41190 | 8321 ft | 282 kts | 225° |
| 2026-04-21 03:50 | 30.65094 | -88.42830 | 8049 ft | 282 kts | 225° |
| 2026-04-21 03:50 | 30.63745 | -88.44473 | 7720 ft | 280 kts | 225° |
| 2026-04-21 03:50 | 30.62394 | -88.46091 | 7424 ft | 278 kts | 225° |
| 2026-04-21 03:51 | 30.61039 | -88.47697 | 7130 ft | 278 kts | 224° |
| 2026-04-21 03:51 | 30.59699 | -88.49310 | 6861 ft | 278 kts | 225° |
| 2026-04-21 03:51 | 30.58363 | -88.50927 | 6555 ft | 277 kts | 224° |
| 2026-04-21 03:51 | 30.57043 | -88.52503 | 6231 ft | 276 kts | 223° |
| 2026-04-21 03:52 | 30.55697 | -88.54103 | 5929 ft | 270 kts | 223° |
| 2026-04-21 03:52 | 30.54399 | -88.55653 | 5626 ft | 266 kts | 223° |
| 2026-04-21 03:52 | 30.53201 | -88.57286 | 5339 ft | 267 kts | 236° |
| 2026-04-21 03:52 | 30.52369 | -88.59213 | 5020 ft | 268 kts | 245° |
| 2026-04-21 03:53 | 30.51677 | -88.61181 | 4700 ft | 266 kts | 245° |
| 2026-04-21 03:53 | 30.50790 | -88.63038 | 4376 ft | 261 kts | 233° |
| 2026-04-21 03:53 | 30.49731 | -88.64770 | 4050 ft | 259 kts | 231° |
| 2026-04-21 03:53 | 30.48680 | -88.66425 | 3738 ft | 257 kts | 231° |
| 2026-04-21 03:54 | 30.47611 | -88.68083 | 3462 ft | 256 kts | 231° |
| 2026-04-21 03:54 | 30.46492 | -88.69662 | 3235 ft | 249 kts | 224° |
| 2026-04-21 03:54 | 30.45325 | -88.71063 | 3135 ft | 236 kts | 224° |
| 2026-04-21 03:54 | 30.44187 | -88.72397 | 3142 ft | 227 kts | 222° |
| 2026-04-21 03:55 | 30.43082 | -88.73673 | 2982 ft | 220 kts | 221° |
| 2026-04-21 03:55 | 30.42036 | -88.74892 | 3045 ft | 207 kts | 223° |
| 2026-04-21 03:55 | 30.41005 | -88.76081 | 3069 ft | 204 kts | 221° |
| 2026-04-21 03:55 | 30.39989 | -88.77222 | 3078 ft | 202 kts | 223° |
| 2026-04-21 03:56 | 30.38985 | -88.78375 | 2976 ft | 202 kts | 222° |
| 2026-04-21 03:56 | 30.37978 | -88.79491 | 3023 ft | 201 kts | 220° |
| 2026-04-21 03:56 | 30.36953 | -88.80621 | 3013 ft | 204 kts | 220° |
| 2026-04-21 03:56 | 30.35936 | -88.81756 | 2982 ft | 202 kts | 221° |
| 2026-04-21 03:57 | 30.34925 | -88.82886 | 2975 ft | 202 kts | 221° |
| 2026-04-21 03:57 | 30.33911 | -88.84012 | 2971 ft | 202 kts | 220° |
| 2026-04-21 03:57 | 30.32896 | -88.85144 | 2968 ft | 203 kts | 220° |
| 2026-04-21 03:57 | 30.31893 | -88.86287 | 2966 ft | 203 kts | 226° |
| 2026-04-21 03:58 | 30.31110 | -88.87645 | 2965 ft | 203 kts | 239° |
| 2026-04-21 03:58 | 30.30445 | -88.89079 | 3005 ft | 202 kts | 240° |
| 2026-04-21 03:58 | 30.29837 | -88.90559 | 2999 ft | 205 kts | 252° |
| 2026-04-21 03:58 | 30.29606 | -88.92187 | 2990 ft | 207 kts | 265° |
| 2026-04-21 03:59 | 30.29493 | -88.93849 | 2965 ft | 208 kts | 267° |
| 2026-04-21 03:59 | 30.29773 | -88.95460 | 2661 ft | 200 kts | 307° |
| 2026-04-21 03:59 | 30.30761 | -88.96539 | 2436 ft | 197 kts | 326° |
| 2026-04-21 04:00 | 30.32870 | -88.98505 | 1836 ft | 192 kts | 324° |
| 2026-04-21 04:00 | 30.33869 | -88.99468 | 1578 ft | 176 kts | 321° |
| 2026-04-21 04:00 | 30.34711 | -89.00377 | 1355 ft | 157 kts | 319° |
| 2026-04-21 04:00 | 30.35468 | -89.01246 | 1138 ft | 149 kts | 316° |
| 2026-04-21 04:01 | 30.36198 | -89.02090 | 993 ft | 148 kts | 316° |
| 2026-04-21 04:01 | 30.36914 | -89.02946 | 860 ft | 147 kts | 315° |
| 2026-04-21 04:01 | 30.37656 | -89.03770 | 706 ft | 148 kts | 316° |
| 2026-04-21 04:01 | 30.38375 | -89.04625 | 477 ft | 148 kts | 314° |
| 2026-04-21 04:02 | 30.39098 | -89.05452 | 259 ft | 144 kts | 315° |
| 2026-04-21 04:02 | 30.39802 | -89.06276 | 52 ft | 142 kts | 315° |
| 2026-04-21 04:02 | 30.40407 | -89.06977 | 37 ft | 97 kts | 315° |
| 2026-04-21 04:02 | 30.40750 | -89.07367 | 36 ft | 48 kts | 314° |
| 2026-04-21 04:03 | 30.40947 | -89.07597 | 36 ft | 31 kts | 315° |
| 2026-04-21 04:03 | 30.41056 | -89.07721 | 36 ft | 17 kts | 318° |
| 2026-04-21 04:03 | 30.41150 | -89.07685 | 36 ft | 16 kts | 45° |
| 2026-04-21 04:03 | 30.41215 | -89.07604 | 36 ft | 11 kts | 58° |
| 2026-04-21 04:04 | 30.41251 | -89.07524 | 36 ft | 12 kts | 63° |
| 2026-04-21 04:04 | 30.41276 | -89.07444 | 36 ft | 9 kts | 90° |
| 2026-04-21 04:04 | 30.41285 | -89.07384 | 36 ft | 6 kts | 66° |
| 2026-04-21 04:04 | 30.41290 | -89.07371 | 36 ft | 0 kts | 66° |